Flight Track Log - Related Links

Times and Time Zones

All times are in EDT time to prevent confusion due to time zone crossing. See the ASQ5875 flight status page for this flight to view local times or setup timezone preferences in your user account.


Time Position Orientation Groundspeed Altitude Reporting Facility
EDT Latitude Longitude Course Direction KTS MPH feet Rate Location/Type
Sun 12:08:39 PM 41.9667 -87.8333 66° East 169 194 3,500  Level Chicago TRACON
Sun 12:10:15 PM 41.9586 -87.7119 95° East 208 239 5,000 1,329 Climbing Chicago Center
Sun 12:11:17 PM 41.9833 -87.6197 70° East 259 298 7,000 1,935 Climbing Chicago Center
Sun 12:12:19 PM 42.0256 -87.5381 55° Northeast 266 306 9,000 2,000 Climbing Chicago Center
Sun 12:13:20 PM 42.0808 -87.4372 54° Northeast 278 320 11,100 1,902 Climbing Chicago Center
Sun 12:14:00 PM 42.2595 -87.0883 66° East  Level FlightAware Approximate
Sun 12:14:22 PM 42.1281 -87.3472 55° Northeast 289 333 12,900  Level Chicago Center
Sun 12:15:24 PM 42.1778 -87.2539 54° Northeast 303 349 13,700 774 Climbing Chicago Center
Sun 12:16:26 PM 42.1864 -87.1214 85° East 343 395 14,500 927 Climbing Chicago Center
Sun 12:17:27 PM 42.1928 -86.9861 86° East 358 412 15,600 1,073 Climbing Chicago Center
Sun 12:18:29 PM 42.1989 -86.8511 86° East 362 417 16,700 1,016 Climbing Chicago Center
Sun 12:19:31 PM 42.2056 -86.7144 86° East 366 421 17,700 1,016 Climbing Chicago Center
Sun 12:20:33 PM 42.2128 -86.5672 86° East 375 432 18,800 968 Climbing Chicago Center
Sun 12:21:35 PM 42.2189 -86.4239 87° East 381 438 19,700 968 Climbing Chicago Center
Sun 12:22:37 PM 42.2261 -86.2511 87° East 385 443 20,800 968 Climbing Chicago Center
Sun 12:23:39 PM 42.2322 -86.1042 87° East 390 449 21,700 829 Climbing Chicago Center
Sun 12:24:40 PM 42.2386 -85.9542 87° East 397 457 22,500 927 Climbing Chicago Center
Sun 12:25:42 PM 42.2436 -85.8178 87° East 398 458 23,600 1,210 Climbing Chicago Center
Sun 12:26:44 PM 42.2500 -85.6428 87° East 395 455 25,000 1,161 Climbing Chicago Center
Sun 12:27:46 PM 42.2544 -85.4989 88° East 390 449 26,000 968 Climbing Chicago Center
Sun 12:28:48 PM 42.2597 -85.3550 87° East 387 445 27,000 929 Climbing Chicago Center
Sun 12:29:10 PM 42.2631 -85.3086 84° East 383 441 27,300 951 Climbing Cleveland Center
Sun 12:30:10 PM 42.2689 -85.1658 87° East 383 441 28,300 1,000 Climbing Cleveland Center
Sun 12:31:10 PM 42.2553 -85.0303 98° East 383 441 29,300 1,000 Climbing Cleveland Center
Sun 12:32:10 PM 42.2419 -84.8861 97° East 378 435 30,300 1,000 Climbing Cleveland Center
Sun 12:33:10 PM 42.2306 -84.7450 96° East 378 435 31,300 1,000 Climbing Cleveland Center
Sun 12:34:10 PM 42.2125 -84.6094 100° East 372 428 32,300 1,150 Climbing Cleveland Center
Sun 12:35:10 PM 42.1989 -84.4569 97° East 372 428 33,600 1,100 Climbing Cleveland Center
Sun 12:36:10 PM 42.1889 -84.3164 95° East 372 428 34,500 500 Climbing Cleveland Center
Sun 12:37:10 PM 42.2111 -84.2111 74° East 367 422 34,600 250 Climbing Cleveland Center
Sun 12:38:10 PM 42.2511 -84.0617 70° East 367 422 35,000 200 Climbing Cleveland Center
Sun 12:39:10 PM 42.2928 -83.9208 68° East 387 445 35,000  Level Cleveland Center
Sun 12:40:10 PM 42.3367 -83.7742 68° East 404 465 35,000  Level Cleveland Center
Sun 12:41:10 PM 42.3803 -83.6247 68° East 415 478 35,000  Level Cleveland Center
Sun 12:42:10 PM 42.4244 -83.4494 71° East 438 504 35,000  Level Cleveland Center
Sun 12:43:10 PM 42.4656 -83.3050 69° East 448 516 35,000  Level Cleveland Center
Sun 12:44:10 PM 42.5108 -83.1436 69° East 448 516 35,000  Level Cleveland Center
Sun 12:45:10 PM 42.5539 -82.9875 69° East 443 510 35,000  Level Cleveland Center
Sun 12:46:10 PM 42.5967 -82.8283 70° East 443 510 35,000  Level Cleveland Center
Sun 12:47:10 PM 42.6392 -82.6717 70° East 443 510 35,000  Level Cleveland Center
Sun 12:48:10 PM 42.6817 -82.5122 70° East 443 510 35,000  Level Cleveland Center
Sun 12:49:09 PM 42.7258 -82.3525 69° East 443 510 35,000  Level Cleveland Center
Sun 12:50:10 PM 42.7678 -82.1894 71° East 443 510 35,000  Level Cleveland Center
Sun 12:51:10 PM 42.8097 -82.0236 71° East 443 510 35,000  Level Cleveland Center
Sun 12:53:26 PM 42.9000 -81.6333 72° East 460 529 35,000  Level Toronto Center
Sun 12:54:26 PM 42.9333 -81.4500 76° East 460 529 35,000  Level Toronto Center
Sun 12:55:26 PM 42.9833 -81.3000 65° Northeast 470 541 35,000  Level Toronto Center
Sun 12:56:26 PM 43.0333 -81.1333 68° East 470 541 35,000  Level Toronto Center
Sun 12:57:26 PM 43.0833 -80.9500 69° East 470 541 35,000  Level Toronto Center
Sun 12:58:26 PM 43.1500 -80.8167 56° Northeast 480 552 35,000  Level Toronto Center
Sun 12:59:26 PM 43.2333 -80.6333 58° Northeast 480 552 35,000  Level Toronto Center
Sun 01:00:26 PM 43.3000 -80.4833 59° Northeast 480 552 35,000  Level Toronto Center
Sun 01:01:26 PM 43.3667 -80.3500 55° Northeast 480 552 35,000  Level Toronto Center
Sun 01:02:26 PM 43.4333 -80.1667 63° Northeast 480 552 35,000  Level Toronto Center
Sun 01:03:26 PM 43.4833 -80.0000 67° East 490 564 35,000  Level Toronto Center
Sun 01:04:26 PM 43.5667 -79.8333 55° Northeast 490 564 35,000  Level Toronto Center
Sun 01:05:26 PM 43.6167 -79.6833 65° Northeast 490 564 35,000  Level Toronto Center
Sun 01:06:26 PM 43.6667 -79.5000 69° East 490 564 35,000  Level Toronto Center
Sun 01:07:26 PM 43.7167 -79.3333 67° East 490 564 35,000  Level Toronto Center
Sun 01:08:26 PM 43.7667 -79.1500 69° East 490 564 35,000  Level Toronto Center
Sun 01:09:26 PM 43.8167 -78.9833 67° East 490 564 35,000  Level Toronto Center
Sun 01:10:26 PM 43.8833 -78.8000 63° Northeast 470 541 35,000  Level Toronto Center
Sun 01:11:26 PM 43.9333 -78.6667 62° Northeast 460 529 35,000  Level Toronto Center
Sun 01:12:26 PM 43.9667 -78.4667 77° East 470 541 35,000  Level Toronto Center
Sun 01:13:26 PM 44.0167 -78.3167 65° Northeast 470 541 35,000  Level Toronto Center
Sun 01:14:26 PM 44.0667 -78.1500 67° East 470 541 35,000  Level Toronto Center
Sun 01:15:26 PM 44.1167 -77.9833 67° East 470 541 35,000  Level Toronto Center
Sun 01:16:26 PM 44.1667 -77.8167 67° East 480 552 35,000  Level Toronto Center
Sun 01:17:26 PM 44.2167 -77.6333 69° East 480 552 35,000  Level Toronto Center
Sun 01:18:26 PM 44.2667 -77.4667 67° East 490 564 35,000  Level Toronto Center
Sun 01:19:26 PM 44.3167 -77.2833 69° East 490 564 35,000  Level Toronto Center
Sun 01:20:26 PM 44.3667 -77.1167 67° East 480 552 35,000  Level Toronto Center
Sun 01:21:26 PM 44.4167 -76.9167 71° East 480 552 35,000  Level Toronto Center
Sun 01:22:26 PM 44.4667 -76.7667 65° Northeast 470 541 35,000  Level Toronto Center
Sun 01:23:26 PM 44.5000 -76.6000 74° East 470 541 35,000  Level Toronto Center
Sun 01:24:26 PM 44.5500 -76.4333 67° East 470 541 35,000  Level Toronto Center
Sun 01:25:26 PM 44.6000 -76.2667 67° East 460 529 35,000 -650 Level Toronto Center
Sun 01:26:26 PM 44.6667 -76.1000 61° Northeast 470 541 33,700 -1,700 Descending Toronto Center
Sun 01:27:26 PM 44.7000 -75.9000 77° East 470 541 31,600 -2,000 Descending Toronto Center
Sun 01:28:26 PM 44.7500 -75.7333 67° East 470 541 29,700 -1,950 Descending Toronto Center
Sun 01:29:26 PM 44.7833 -75.5667 74° East 460 529 27,700 -2,700 Descending Toronto Center
Sun 01:30:26 PM 44.8333 -75.4000 67° East 460 529 24,300 -2,900 Descending Toronto Center
Sun 01:31:26 PM 44.8833 -75.2500 65° Northeast 440 506 21,900 -2,500 Descending Toronto Center
Sun 01:32:26 PM 44.9167 -75.0833 74° East 430 495 19,300 -2,400 Descending Toronto Center
Sun 01:33:26 PM 44.9500 -74.9500 71° East 420 483 17,100 -1,600 Descending Toronto Center
Sun 01:34:26 PM 45.0167 -74.8000 58° Northeast 380 437 16,100 -600 Descending Toronto Center
Sun 01:35:26 PM 45.0500 -74.6667 70° East 370 426 15,900 -100 Descending Toronto Center
Sun 01:36:26 PM 45.1167 -74.5500 51° Northeast 390 449 15,900 -50 Level Toronto Center
Sun 01:37:26 PM 45.1833 -74.4333 51° Northeast 390 449 15,800 -800 Descending Toronto Center
Sun 01:38:26 PM 45.2333 -74.2833 65° Northeast 390 449 14,300 -1,500 Descending Toronto Center
Sun 01:39:26 PM 45.2833 -74.1500 62° Northeast 390 449 12,800 -1,350 Descending Toronto Center
Sun 01:40:26 PM 45.3500 -74.0333 51° Northeast 370 426 11,600 -1,587 Descending Toronto Center
Sun 01:41:27 PM 45.4000 -73.9833 35° Northeast 290 334 9,600 -1,884 Descending Montreal Center
Sun 01:42:27 PM 45.4667 -73.8833 46° Northeast 270 311 7,800 -1,450 Descending Montreal Center
Sun 01:43:27 PM 45.5167 -73.8333 35° Northeast 260 299 6,700 -1,150 Descending Montreal Center
Sun 01:44:27 PM 45.5667 -73.7667 43° Northeast 260 299 5,500 -1,250 Descending Montreal Center
Sun 01:45:27 PM 45.6167 -73.7000 43° Northeast 250 288 4,200 -1,250 Descending Montreal Center
Sun 01:46:27 PM 45.6333 -73.6167 74° East 210 242 3,000 -600 Descending Montreal Center
Sun 01:47:27 PM 45.5833 -73.5667 145° Southeast 190 219 3,000 -550 Level Montreal Center
Sun 01:48:27 PM 45.5333 -73.6500 229° Southwest 220 253 1,900 -1,000 Descending Montreal Center
Sun 01:49:27 PM 45.5000 -73.7000 226° Southwest 160 184 1,000 -800 Descending Montreal Center
Sun 01:50:27 PM 45.4667 -73.7167 199° South 140 161 300 -450 Descending Montreal Center
Sun 01:51:27 PM 45.4500 -73.7500 235° Southwest 40 46 100 -200 Descending Montreal Center

Login

Don't have an account? Register now (free) for customized features, flight alerts, and more!